createdAt,value
2023-04-10T00:00:13.454Z,17.10
2023-04-10T00:02:41.092Z,17.42
2023-04-10T00:05:09.329Z,17.30
2023-04-10T00:07:36.912Z,16.40
2023-04-10T00:10:04.583Z,17.08
2023-04-10T00:12:32.397Z,16.92
2023-04-10T00:14:59.920Z,15.73
2023-04-10T00:17:27.697Z,15.82
2023-04-10T00:19:55.545Z,16.83
2023-04-10T00:22:23.037Z,16.77
2023-04-10T00:24:50.502Z,17.27
2023-04-10T00:27:17.891Z,16.20
2023-04-10T00:29:45.367Z,16.88
2023-04-10T00:32:12.889Z,16.70
2023-04-10T00:34:40.810Z,17.88
2023-04-10T00:37:08.240Z,16.60
2023-04-10T00:39:35.561Z,16.80
2023-04-10T00:42:03.554Z,17.77
2023-04-10T00:44:31.047Z,16.08
2023-04-10T00:46:58.355Z,17.33
2023-04-10T00:49:25.713Z,16.77
2023-04-10T00:54:22.739Z,17.50
2023-04-10T00:56:51.422Z,17.30
2023-04-10T00:59:19.080Z,16.90
2023-04-10T01:01:46.563Z,17.98
2023-04-10T01:04:14.876Z,17.73
2023-04-10T01:06:52.662Z,17.08
2023-04-10T01:09:32.082Z,18.30
2023-04-10T01:12:23.947Z,16.50
2023-04-10T01:15:13.320Z,17.02
2023-04-10T01:17:51.145Z,17.15
2023-04-10T01:20:24.881Z,16.42
2023-04-10T01:23:19.612Z,15.25
2023-04-10T01:25:53.816Z,16.05
2023-04-10T01:29:00.366Z,16.73
2023-04-10T01:31:42.519Z,15.65
2023-04-10T01:34:17.017Z,16.75
2023-04-10T01:37:01.576Z,16.05
2023-04-10T01:39:30.690Z,15.93
2023-04-10T01:42:00.052Z,15.00
2023-04-10T01:44:32.519Z,13.02
2023-04-10T01:47:01.842Z,14.80
2023-04-10T01:49:31.769Z,14.20
2023-04-10T01:52:00.882Z,12.95
2023-04-10T01:54:29.421Z,11.32
2023-04-10T01:56:57.891Z,12.77
2023-04-10T01:59:25.810Z,13.15
2023-04-10T02:02:02.272Z,12.35
2023-04-10T02:04:29.912Z,12.30
2023-04-10T02:07:07.586Z,12.60
2023-04-10T02:09:59.278Z,11.75
2023-04-10T02:12:32.308Z,11.00
2023-04-10T02:15:05.313Z,11.88
2023-04-10T02:17:34.849Z,10.75
2023-04-10T02:20:04.451Z,10.23
2023-04-10T02:22:31.975Z,10.23
2023-04-10T02:25:01.147Z,10.30
2023-04-10T02:27:35.872Z,10.80
2023-04-10T02:30:04.524Z,10.93
2023-04-10T02:32:33.728Z,9.50
2023-04-10T02:35:04.347Z,9.82
2023-04-10T02:37:33.081Z,9.57
2023-04-10T02:40:01.023Z,10.57
2023-04-10T02:42:29.558Z,9.65
2023-04-10T02:44:56.898Z,10.45
2023-04-10T02:47:24.618Z,9.90
2023-04-10T02:49:52.087Z,9.15
2023-04-10T02:52:19.454Z,12.65
2023-04-10T02:54:47.541Z,10.43
2023-04-10T02:57:15.433Z,10.93
2023-04-10T02:59:43.622Z,10.35
2023-04-10T03:02:11.672Z,10.40
2023-04-10T03:04:39.162Z,10.77
2023-04-10T03:07:07.274Z,9.60
2023-04-10T03:09:34.827Z,10.60
2023-04-10T03:12:03.007Z,9.52
2023-04-10T03:14:30.577Z,10.82
2023-04-10T03:16:57.889Z,10.57
2023-04-10T03:19:26.776Z,10.95
2023-04-10T03:21:54.177Z,10.00
2023-04-10T03:24:21.510Z,9.90
2023-04-10T03:26:48.817Z,10.13
2023-04-10T03:29:19.238Z,11.38
2023-04-10T03:31:46.705Z,9.38
2023-04-10T03:34:14.275Z,9.25
2023-04-10T03:36:42.202Z,9.00
2023-04-10T03:39:09.536Z,9.88
2023-04-10T03:41:36.898Z,9.75
2023-04-10T03:44:04.660Z,10.48
2023-04-10T03:46:32.050Z,9.18
2023-04-10T03:48:59.392Z,9.02
2023-04-10T03:51:27.459Z,8.63
2023-04-10T03:53:55.121Z,8.43
2023-04-10T03:56:22.800Z,8.45
2023-04-10T03:58:50.229Z,8.20
2023-04-10T04:01:17.598Z,7.88
2023-04-10T04:03:45.152Z,8.50
2023-04-10T04:06:12.958Z,7.63
2023-04-10T04:08:40.378Z,7.57
2023-04-10T04:11:10.582Z,7.88
2023-04-10T04:13:37.879Z,8.30
2023-04-10T04:16:05.697Z,7.78
2023-04-10T04:18:33.075Z,7.22
2023-04-10T04:21:00.457Z,7.32
2023-04-10T04:23:28.036Z,7.30
2023-04-10T04:25:57.177Z,6.57
2023-04-10T04:28:24.593Z,6.35
2023-04-10T04:30:51.995Z,7.47
2023-04-10T04:33:19.457Z,7.32
2023-04-10T04:35:49.457Z,6.97
2023-04-10T04:38:16.963Z,7.60
2023-04-10T04:40:44.319Z,6.80
2023-04-10T04:43:11.698Z,6.13
2023-04-10T04:45:39.069Z,6.65
2023-04-10T04:48:06.560Z,6.95
2023-04-10T04:50:33.952Z,6.78
2023-04-10T04:53:01.554Z,7.95
2023-04-10T04:55:28.890Z,7.35
2023-04-10T04:57:56.259Z,6.10
2023-04-10T05:00:23.622Z,7.30
2023-04-10T05:02:51.511Z,6.53
2023-04-10T05:05:18.979Z,6.72
2023-04-10T05:07:46.854Z,6.72
2023-04-10T05:10:14.258Z,6.57
2023-04-10T05:12:43.275Z,5.78
2023-04-10T05:15:11.085Z,6.78
2023-04-10T05:17:39.568Z,6.13
2023-04-10T05:20:09.847Z,6.60
2023-04-10T05:22:37.243Z,6.45
2023-04-10T05:25:04.971Z,6.10
2023-04-10T05:27:32.265Z,6.47
2023-04-10T05:29:59.692Z,6.05
2023-04-10T05:32:27.125Z,7.53
2023-04-10T05:34:56.136Z,5.93
2023-04-10T05:37:23.540Z,6.88
2023-04-10T05:39:51.020Z,6.05
2023-04-10T05:42:18.373Z,5.47
2023-04-10T05:44:45.877Z,6.00
2023-04-10T05:47:13.323Z,5.68
2023-04-10T05:49:40.649Z,5.28
2023-04-10T05:52:07.988Z,5.28
2023-04-10T05:54:35.537Z,5.85
2023-04-10T05:57:02.905Z,5.32
2023-04-10T05:59:30.328Z,5.88
2023-04-10T06:01:58.251Z,5.18
2023-04-10T06:04:25.827Z,5.10
2023-04-10T06:06:53.351Z,5.38
2023-04-10T06:09:20.676Z,5.72
2023-04-10T06:11:47.988Z,6.35
2023-04-10T06:14:15.408Z,6.20
2023-04-10T06:16:43.282Z,5.47
2023-04-10T06:19:11.699Z,5.55
2023-04-10T06:21:39.144Z,5.10
2023-04-10T06:24:06.867Z,6.25
2023-04-10T06:26:34.177Z,5.93
2023-04-10T06:29:01.514Z,5.90
2023-04-10T06:31:28.969Z,6.07
2023-04-10T06:33:56.269Z,6.20
2023-04-10T06:36:23.597Z,6.35
2023-04-10T06:38:53.724Z,6.47
2023-04-10T06:41:21.175Z,6.03
2023-04-10T06:43:48.436Z,6.78
2023-04-10T06:46:16.283Z,6.90
2023-04-10T06:48:44.853Z,6.07
2023-04-10T06:51:12.153Z,6.22
2023-04-10T06:53:39.482Z,5.75
2023-04-10T06:56:07.372Z,6.10
2023-04-10T06:58:34.780Z,5.82
2023-04-10T07:01:05.020Z,5.82
2023-04-10T07:03:32.786Z,6.50
2023-04-10T07:06:02.077Z,5.35
2023-04-10T07:08:29.604Z,5.60
2023-04-10T07:10:58.640Z,7.07
2023-04-10T07:13:26.560Z,5.32
2023-04-10T07:15:54.022Z,5.60
2023-04-10T07:18:21.460Z,4.45
2023-04-10T07:20:50.105Z,4.82
2023-04-10T07:23:17.518Z,5.03
2023-04-10T07:25:44.876Z,4.78
2023-04-10T07:28:12.164Z,6.28
2023-04-10T07:30:39.477Z,5.50
2023-04-10T07:33:07.021Z,4.80
2023-04-10T07:35:36.965Z,5.25
2023-04-10T07:38:04.650Z,4.80
2023-04-10T07:40:33.009Z,4.90
2023-04-10T07:43:00.466Z,5.20
2023-04-10T07:45:28.674Z,5.03
2023-04-10T07:47:56.559Z,6.38
2023-04-10T07:50:24.030Z,5.53
2023-04-10T07:52:51.470Z,4.85
2023-04-10T07:55:19.102Z,5.35
2023-04-10T07:57:46.711Z,4.95
2023-04-10T08:00:14.684Z,6.13
2023-04-10T08:02:42.337Z,4.57
2023-04-10T08:05:10.010Z,4.38
2023-04-10T08:07:38.762Z,5.03
2023-04-10T08:10:06.719Z,4.53
2023-04-10T08:12:34.765Z,5.20
2023-04-10T08:15:02.280Z,5.00
2023-04-10T08:17:29.601Z,5.07
2023-04-10T08:19:59.459Z,4.85
2023-04-10T08:22:26.794Z,5.32
2023-04-10T08:24:54.086Z,5.30
2023-04-10T08:27:21.488Z,5.13
2023-04-10T08:29:48.822Z,6.55
2023-04-10T08:32:16.227Z,5.70
2023-04-10T08:34:43.518Z,8.57
2023-04-10T08:37:12.331Z,5.70
2023-04-10T08:39:39.754Z,4.97
2023-04-10T08:42:07.602Z,5.50
2023-04-10T08:44:37.306Z,4.72
2023-04-10T08:47:06.274Z,4.90
2023-04-10T08:49:57.266Z,4.15
2023-04-10T08:52:33.463Z,4.72
2023-04-10T08:55:06.124Z,4.18
2023-04-10T08:57:37.628Z,4.35
2023-04-10T09:00:22.132Z,3.78
2023-04-10T09:02:55.262Z,3.80
2023-04-10T09:05:23.245Z,3.80
2023-04-10T09:07:51.241Z,3.90
2023-04-10T09:10:18.595Z,4.10
2023-04-10T09:12:47.594Z,3.53
2023-04-10T09:15:15.860Z,3.25
2023-04-10T09:18:00.292Z,3.42
2023-04-10T09:20:30.327Z,3.45
2023-04-10T09:22:57.681Z,3.42
2023-04-10T09:25:41.717Z,3.55
2023-04-10T09:28:10.159Z,2.38
2023-04-10T09:30:42.122Z,2.55
2023-04-10T09:33:30.407Z,1.63
2023-04-10T09:36:04.063Z,2.17
2023-04-10T09:38:31.426Z,1.40
2023-04-10T09:41:08.616Z,1.58
2023-04-10T09:43:36.301Z,1.85
2023-04-10T09:46:03.713Z,1.50
2023-04-10T09:48:31.026Z,1.60
2023-04-10T09:50:58.608Z,1.90
2023-04-10T09:53:26.004Z,1.58
2023-04-10T09:55:53.488Z,1.33
2023-04-10T09:58:21.319Z,1.35
2023-04-10T10:00:50.000Z,1.40
2023-04-10T10:03:22.224Z,1.20
2023-04-10T10:05:51.185Z,2.25
2023-04-10T10:08:19.067Z,1.75
2023-04-10T10:10:54.745Z,4.63
2023-04-10T10:13:33.004Z,1.50
2023-04-10T10:16:35.437Z,1.90
2023-04-10T10:19:11.862Z,1.60
2023-04-10T10:21:40.116Z,1.20
2023-04-10T10:24:09.213Z,1.20
2023-04-10T10:26:40.130Z,1.40
2023-04-10T10:29:10.959Z,1.02
2023-04-10T10:31:38.846Z,0.98
2023-04-10T10:34:09.399Z,1.10
2023-04-10T10:36:38.060Z,0.93
2023-04-10T10:39:17.643Z,1.17
2023-04-10T10:42:02.257Z,1.10
2023-04-10T10:44:45.070Z,1.00
2023-04-10T10:47:29.284Z,1.23
2023-04-10T10:50:23.355Z,0.85
2023-04-10T10:52:57.367Z,1.30
2023-04-10T10:55:24.872Z,1.25
2023-04-10T10:57:54.674Z,1.20
2023-04-10T11:00:23.839Z,1.70
2023-04-10T11:03:10.696Z,1.27
2023-04-10T11:06:03.057Z,1.20
2023-04-10T11:08:33.386Z,1.60
2023-04-10T11:11:07.379Z,1.83
2023-04-10T11:13:37.264Z,1.55
2023-04-10T11:16:06.913Z,1.80
2023-04-10T11:18:47.310Z,2.33
2023-04-10T11:21:17.406Z,2.10
2023-04-10T11:24:05.665Z,2.90
2023-04-10T11:26:36.764Z,2.30
2023-04-10T11:29:06.026Z,2.97
2023-04-10T11:31:34.296Z,2.92
2023-04-10T11:34:04.023Z,3.60
2023-04-10T11:36:32.205Z,2.92
2023-04-10T11:39:00.951Z,4.38
2023-04-10T11:41:38.757Z,3.88
2023-04-10T11:44:11.399Z,3.83
2023-04-10T11:46:43.567Z,5.78
2023-04-10T11:49:11.541Z,4.00
2023-04-10T11:51:40.319Z,3.88
2023-04-10T11:54:18.790Z,3.33
2023-04-10T11:56:59.187Z,4.45
2023-04-10T11:59:27.011Z,3.65
2023-04-10T12:02:05.002Z,4.13
2023-04-10T12:04:32.564Z,5.25
2023-04-10T12:07:00.410Z,3.78
2023-04-10T12:09:28.013Z,12.60
2023-04-10T12:12:00.922Z,4.25
2023-04-10T12:14:35.469Z,4.50
2023-04-10T12:17:04.902Z,4.55
2023-04-10T12:19:34.033Z,5.00
2023-04-10T12:22:02.962Z,6.65
2023-04-10T12:24:44.653Z,4.63
2023-04-10T12:27:26.766Z,5.53
2023-04-10T12:29:56.829Z,5.20
2023-04-10T12:32:24.814Z,5.68
2023-04-10T12:34:55.137Z,6.22
2023-04-10T12:37:22.789Z,4.88
2023-04-10T12:39:50.498Z,4.28
2023-04-10T12:42:21.186Z,5.15
2023-04-10T12:44:55.743Z,4.40
2023-04-10T12:47:24.149Z,5.05
2023-04-10T12:50:07.806Z,4.55
2023-04-10T12:52:36.464Z,4.70
2023-04-10T12:55:15.687Z,4.20
2023-04-10T12:57:46.136Z,4.32
2023-04-10T13:00:16.552Z,3.88
2023-04-10T13:02:44.907Z,3.97
2023-04-10T13:05:12.594Z,5.10
2023-04-10T13:07:40.262Z,4.30
2023-04-10T13:10:08.396Z,6.35
2023-04-10T13:12:36.434Z,3.45
2023-04-10T13:15:04.072Z,4.43
2023-04-10T13:17:31.425Z,4.72
2023-04-10T13:19:58.835Z,5.05
2023-04-10T13:22:26.169Z,4.25
2023-04-10T13:24:53.440Z,5.30
2023-04-10T13:27:20.818Z,4.35
2023-04-10T13:29:48.158Z,4.22
2023-04-10T13:32:15.686Z,5.32
2023-04-10T13:34:42.992Z,4.95
2023-04-10T13:37:13.157Z,4.15
2023-04-10T13:39:40.684Z,3.65
2023-04-10T13:42:13.877Z,3.67
2023-04-10T13:44:41.840Z,2.28
2023-04-10T13:47:09.503Z,3.35
2023-04-10T13:49:36.836Z,2.35
2023-04-10T13:52:04.176Z,1.80
2023-04-10T13:54:31.617Z,2.45
2023-04-10T13:56:59.423Z,1.40
2023-04-10T13:59:26.774Z,1.70
2023-04-10T14:01:54.138Z,1.98
2023-04-10T14:04:21.630Z,1.60
2023-04-10T14:06:51.627Z,1.75
2023-04-10T14:09:19.671Z,1.95
2023-04-10T14:11:46.999Z,2.20
2023-04-10T14:14:14.308Z,1.92
2023-04-10T14:16:41.711Z,1.80
2023-04-10T14:19:09.186Z,2.15
2023-04-10T14:21:37.328Z,1.77
2023-04-10T14:24:04.624Z,2.25
2023-04-10T14:26:31.936Z,2.78
2023-04-10T14:28:59.305Z,3.83
2023-04-10T14:31:29.028Z,6.55
2023-04-10T14:33:57.107Z,2.17
2023-04-10T14:36:24.453Z,2.95
2023-04-10T14:38:51.871Z,5.07
2023-04-10T14:41:20.300Z,11.25
2023-04-10T14:43:47.616Z,2.70
2023-04-10T14:46:15.100Z,6.18
2023-04-10T14:48:42.570Z,3.58
2023-04-10T14:51:12.863Z,2.65
2023-04-10T14:53:40.588Z,4.85
2023-04-10T14:56:15.747Z,5.75
2023-04-10T14:58:43.885Z,2.35
2023-04-10T15:01:15.150Z,5.13
2023-04-10T15:03:42.512Z,3.00
2023-04-10T15:06:10.352Z,3.47
2023-04-10T15:08:37.766Z,3.20
2023-04-10T15:11:05.430Z,3.00
2023-04-10T15:13:33.268Z,4.95
2023-04-10T15:16:00.698Z,3.63
2023-04-10T15:18:28.634Z,3.20
2023-04-10T15:20:58.939Z,17.20
2023-04-10T15:23:27.849Z,4.43
2023-04-10T15:25:55.422Z,3.10
2023-04-10T15:28:22.788Z,3.03
2023-04-10T15:30:50.615Z,4.70
2023-04-10T15:33:19.056Z,4.68
2023-04-10T15:35:52.439Z,3.63
2023-04-10T15:38:20.141Z,3.10
2023-04-10T15:40:47.690Z,3.38
2023-04-10T15:43:15.204Z,3.10
2023-04-10T15:45:42.624Z,3.53
2023-04-10T15:48:10.188Z,3.15
2023-04-10T15:50:37.999Z,4.15
2023-04-10T15:53:05.384Z,3.25
2023-04-10T15:55:33.034Z,4.70
2023-04-10T15:58:02.389Z,2.30
2023-04-10T16:00:30.057Z,2.65
2023-04-10T16:02:58.751Z,2.03
2023-04-10T16:05:26.374Z,1.77
2023-04-10T16:07:53.688Z,2.33
2023-04-10T16:10:21.456Z,2.03
2023-04-10T16:12:48.909Z,2.30
2023-04-10T16:15:16.961Z,2.05
2023-04-10T16:17:44.378Z,1.80
2023-04-10T16:20:12.625Z,2.00
2023-04-10T16:22:40.002Z,2.28
2023-04-10T16:25:07.689Z,1.70
2023-04-10T16:27:35.024Z,2.13
2023-04-10T16:30:05.952Z,2.50
2023-04-10T16:32:34.052Z,2.10
2023-04-10T16:35:01.614Z,1.88
2023-04-10T16:37:28.890Z,2.20
2023-04-10T16:39:56.335Z,1.70
2023-04-10T16:42:23.726Z,1.88
2023-04-10T16:44:52.496Z,1.27
2023-04-10T16:47:20.138Z,1.67
2023-04-10T16:49:47.479Z,2.58
2023-04-10T16:52:14.857Z,2.00
2023-04-10T16:54:42.536Z,1.83
2023-04-10T16:57:09.808Z,1.67
2023-04-10T16:59:37.145Z,2.38
2023-04-10T17:02:04.753Z,2.10
2023-04-10T17:04:32.558Z,2.20
2023-04-10T17:07:00.938Z,1.38
2023-04-10T17:09:28.477Z,1.65
2023-04-10T17:11:55.954Z,1.98
2023-04-10T17:14:23.352Z,1.92
2023-04-10T17:16:51.075Z,2.20
2023-04-10T17:19:18.634Z,1.83
2023-04-10T17:21:46.257Z,1.90
2023-04-10T17:24:13.629Z,2.47
2023-04-10T17:26:41.176Z,2.45
2023-04-10T17:29:08.508Z,2.00
2023-04-10T17:31:36.114Z,2.80
2023-04-10T17:34:04.064Z,2.88
2023-04-10T17:36:32.693Z,3.35
2023-04-10T17:39:00.842Z,2.20
2023-04-10T17:41:28.381Z,2.65
2023-04-10T17:43:55.834Z,2.92
2023-04-10T17:46:24.129Z,2.22
2023-04-10T17:48:51.530Z,2.58
2023-04-10T17:56:30.741Z,2.05
2023-04-10T17:59:07.945Z,3.22
2023-04-10T18:01:35.626Z,2.47
2023-04-10T18:04:03.712Z,2.22
2023-04-10T18:06:31.942Z,2.38
2023-04-10T18:09:02.046Z,4.07
2023-04-10T18:11:29.882Z,2.35
2023-04-10T18:13:57.419Z,2.13
2023-04-10T18:16:24.904Z,2.78
2023-04-10T18:18:52.516Z,1.98
2023-04-10T18:21:21.176Z,2.55
2023-04-10T18:23:48.807Z,2.45
2023-04-10T18:26:16.163Z,3.45
2023-04-10T18:28:45.398Z,2.65
2023-04-10T18:31:16.046Z,2.72
2023-04-10T18:33:43.531Z,3.03
2023-04-10T18:36:11.158Z,2.40
2023-04-10T18:38:41.165Z,2.35
2023-04-10T18:41:08.663Z,4.18
2023-04-10T18:43:38.496Z,2.70
2023-04-10T18:46:06.463Z,3.35
2023-04-10T18:48:40.349Z,2.85
2023-04-10T18:51:08.842Z,2.22
2023-04-10T18:53:36.182Z,2.53
2023-04-10T18:56:03.579Z,2.47
2023-04-10T18:58:32.338Z,2.85
2023-04-10T19:04:07.483Z,2.50
2023-04-10T19:09:42.354Z,2.05
2023-04-10T19:12:10.529Z,2.55
2023-04-10T19:14:37.881Z,2.20
2023-04-10T19:17:35.063Z,3.45
2023-04-10T19:20:02.459Z,2.40
2023-04-10T19:22:29.847Z,2.28
2023-04-10T19:24:57.112Z,2.55
2023-04-10T19:27:25.624Z,2.40
2023-04-10T19:29:52.951Z,2.53
2023-04-10T19:32:20.506Z,2.63
2023-04-10T19:34:51.401Z,2.72
2023-04-10T19:37:21.324Z,2.95
2023-04-10T19:39:48.661Z,3.03
2023-04-10T19:42:16.026Z,2.95
2023-04-10T19:44:43.376Z,2.80
2023-04-10T19:47:10.667Z,2.30
2023-04-10T19:49:37.918Z,3.33
2023-04-10T19:52:05.678Z,2.40
2023-04-10T19:54:33.329Z,2.70
2023-04-10T19:57:01.756Z,2.67
2023-04-10T19:59:29.679Z,2.50
2023-04-10T20:01:57.649Z,2.10
2023-04-10T20:04:25.195Z,2.53
2023-04-10T20:06:52.722Z,2.72
2023-04-10T20:09:20.518Z,2.10
2023-04-10T20:11:47.851Z,2.58
2023-04-10T20:14:15.462Z,2.78
2023-04-10T20:16:42.868Z,2.75
2023-04-10T20:19:10.632Z,2.80
2023-04-10T20:21:37.959Z,3.38
2023-04-10T20:24:05.455Z,2.95
2023-04-10T20:26:33.677Z,1.83
2023-04-10T20:29:01.143Z,2.53
2023-04-10T20:31:28.636Z,2.10
2023-04-10T20:33:56.048Z,2.38
2023-04-10T20:36:23.395Z,3.22
2023-04-10T20:38:50.915Z,2.75
2023-04-10T20:41:18.418Z,3.85
2023-04-10T20:43:46.205Z,2.78
2023-04-10T20:46:13.561Z,2.40
2023-04-10T20:48:42.075Z,2.63
2023-04-10T20:51:09.820Z,2.30
2023-04-10T20:53:37.209Z,2.83
2023-04-10T20:56:06.306Z,3.08
2023-04-10T20:58:33.984Z,3.47
2023-04-10T21:01:01.452Z,3.35
2023-04-10T21:03:30.403Z,2.08
2023-04-10T21:05:58.042Z,1.90
2023-04-10T21:08:25.640Z,1.20
2023-04-10T21:10:53.228Z,1.60
2023-04-10T21:13:20.849Z,1.33
2023-04-10T21:15:49.668Z,1.40
2023-04-10T21:18:17.104Z,1.13
2023-04-10T21:20:45.410Z,1.20
2023-04-10T21:23:12.830Z,1.27
2023-04-10T21:25:40.810Z,1.58
2023-04-10T21:28:08.166Z,1.73
2023-04-10T21:30:38.260Z,1.30
2023-04-10T21:33:05.661Z,1.77
2023-04-10T21:35:35.363Z,1.80
2023-04-10T21:38:02.892Z,1.85
2023-04-10T21:40:34.381Z,1.55
2023-04-10T21:43:02.836Z,2.10
2023-04-10T21:45:31.736Z,2.20
2023-04-10T21:48:01.492Z,2.00
2023-04-10T21:50:29.115Z,2.10
2023-04-10T21:52:57.576Z,2.50
2023-04-10T21:55:24.965Z,2.65
2023-04-10T21:57:52.368Z,3.28
2023-04-10T22:00:22.593Z,2.88
2023-04-10T22:02:52.693Z,2.83
2023-04-10T22:05:20.312Z,2.55
2023-04-10T22:07:48.674Z,2.80
2023-04-10T22:10:16.120Z,2.47
2023-04-10T22:12:43.748Z,2.63
2023-04-10T22:15:12.184Z,2.58
2023-04-10T22:17:39.875Z,2.63
2023-04-10T22:20:07.736Z,2.50
2023-04-10T22:22:38.137Z,2.47
2023-04-10T22:25:06.075Z,2.53
2023-04-10T22:27:34.075Z,2.53
2023-04-10T22:30:04.323Z,2.67
2023-04-10T22:32:32.397Z,2.80
2023-04-10T22:35:00.048Z,2.90
2023-04-10T22:37:28.278Z,3.10
2023-04-10T22:40:00.692Z,2.67
2023-04-10T22:42:30.517Z,3.15
2023-04-10T22:44:59.290Z,3.45
2023-04-10T22:47:27.138Z,2.95
2023-04-10T22:49:54.687Z,3.58
2023-04-10T22:52:22.255Z,3.60
2023-04-10T22:54:49.619Z,2.50
2023-04-10T22:57:17.517Z,3.20
2023-04-10T22:59:44.787Z,3.00
2023-04-10T23:02:12.503Z,4.20
2023-04-10T23:04:39.970Z,3.67
2023-04-10T23:07:07.309Z,3.33
2023-04-10T23:09:34.618Z,3.72
2023-04-10T23:12:02.527Z,3.25
2023-04-10T23:14:30.312Z,3.20
2023-04-10T23:16:57.804Z,3.20
2023-04-10T23:19:25.181Z,3.88
2023-04-10T23:21:53.692Z,3.70
2023-04-10T23:24:21.017Z,4.15
2023-04-10T23:26:48.393Z,3.65
2023-04-10T23:29:15.826Z,4.05
2023-04-10T23:31:43.266Z,4.13
2023-04-10T23:34:10.631Z,3.65
2023-04-10T23:36:37.921Z,3.70
2023-04-10T23:39:05.281Z,2.90
2023-04-10T23:41:33.348Z,4.03
2023-04-10T23:44:00.653Z,3.72
2023-04-10T23:46:28.031Z,3.53
2023-04-10T23:48:56.794Z,2.88
2023-04-10T23:51:24.180Z,2.90
2023-04-10T23:53:51.578Z,3.67
2023-04-10T23:56:19.063Z,2.88
2023-04-10T23:58:46.424Z,3.28
